createdAt,value
2017-10-11T00:01:54.883Z,71.89
2017-10-11T00:04:21.438Z,71.61
2017-10-11T00:06:47.745Z,71.28
2017-10-11T00:09:14.024Z,71.11
2017-10-11T00:11:40.287Z,71.96
2017-10-11T00:14:06.564Z,71.79
2017-10-11T00:16:32.874Z,72.23
2017-10-11T00:18:59.180Z,71.91
2017-10-11T00:21:25.437Z,71.97
2017-10-11T00:23:51.760Z,71.78
2017-10-11T00:26:18.046Z,71.33
2017-10-11T00:28:45.475Z,71.93
2017-10-11T00:31:11.766Z,72.22
2017-10-11T00:33:38.107Z,71.53
2017-10-11T00:36:04.434Z,71.22
2017-10-11T00:38:30.760Z,72.03
2017-10-11T00:40:57.061Z,71.40
2017-10-11T00:43:23.338Z,71.40
2017-10-11T00:45:49.652Z,71.43
2017-10-11T00:48:15.966Z,71.44
2017-10-11T00:50:42.223Z,71.63
2017-10-11T00:53:08.531Z,71.93
2017-10-11T00:55:34.828Z,71.17
2017-10-11T00:58:01.857Z,71.32
2017-10-11T01:00:28.215Z,71.66
2017-10-11T01:02:55.279Z,72.14
2017-10-11T01:05:21.581Z,72.29
2017-10-11T01:07:48.629Z,71.93
2017-10-11T01:10:15.665Z,71.90
2017-10-11T01:12:42.725Z,71.80
2017-10-11T01:15:09.783Z,72.03
2017-10-11T01:17:36.826Z,72.12
2017-10-11T01:20:03.872Z,71.88
2017-10-11T01:22:30.960Z,72.28
2017-10-11T01:24:57.232Z,72.19
2017-10-11T01:27:23.526Z,71.85
2017-10-11T01:29:49.812Z,72.09
2017-10-11T01:32:16.854Z,72.07
2017-10-11T01:34:43.944Z,72.27
2017-10-11T01:37:10.247Z,72.30
2017-10-11T01:39:37.316Z,72.04
2017-10-11T01:42:03.697Z,71.60
2017-10-11T01:44:30.013Z,71.89
2017-10-11T01:46:56.351Z,71.73
2017-10-11T01:49:22.681Z,71.96
2017-10-11T01:51:49.027Z,71.88
2017-10-11T01:54:15.381Z,71.82
2017-10-11T01:56:42.428Z,71.79
2017-10-11T01:59:09.469Z,71.88
2017-10-11T02:01:35.843Z,71.42
2017-10-11T02:04:02.117Z,71.46
2017-10-11T02:06:28.400Z,71.44
2017-10-11T02:08:54.691Z,70.91
2017-10-11T02:11:21.016Z,71.05
2017-10-11T02:13:47.331Z,71.37
2017-10-11T02:16:13.596Z,71.32
2017-10-11T02:18:39.945Z,71.26
2017-10-11T02:21:06.277Z,71.20
2017-10-11T02:23:32.578Z,71.09
2017-10-11T02:25:59.597Z,71.52
2017-10-11T02:28:25.898Z,71.28
2017-10-11T02:30:52.211Z,71.33
2017-10-11T02:33:18.585Z,71.37
2017-10-11T02:35:44.971Z,71.14
2017-10-11T02:38:11.285Z,71.01
2017-10-11T02:40:38.416Z,71.31
2017-10-11T02:43:04.720Z,71.54
2017-10-11T02:45:31.779Z,71.50
2017-10-11T02:47:58.060Z,71.13
2017-10-11T02:50:24.391Z,71.33
2017-10-11T02:52:50.732Z,71.54
2017-10-11T02:55:17.089Z,71.50
2017-10-11T02:57:43.385Z,71.31
2017-10-11T03:00:09.693Z,70.92
2017-10-11T03:02:36.777Z,70.96
2017-10-11T03:05:03.068Z,70.92
2017-10-11T03:07:29.389Z,70.42
2017-10-11T03:09:55.721Z,70.57
2017-10-11T03:12:22.046Z,70.71
2017-10-11T03:14:48.470Z,70.30
2017-10-11T03:17:14.754Z,70.46
2017-10-11T03:19:41.053Z,70.33
2017-10-11T03:22:08.085Z,70.21
2017-10-11T03:24:34.498Z,69.95
2017-10-11T03:27:00.914Z,70.31
2017-10-11T03:29:27.268Z,69.93
2017-10-11T03:31:53.534Z,70.00
2017-10-11T03:34:21.050Z,70.06
2017-10-11T03:36:47.368Z,69.90
2017-10-11T03:39:13.712Z,69.57
2017-10-11T03:41:40.052Z,69.64
2017-10-11T03:44:06.378Z,69.60
2017-10-11T03:46:32.710Z,69.98
2017-10-11T03:48:58.980Z,70.02
2017-10-11T03:51:25.274Z,69.83
2017-10-11T03:53:51.609Z,69.57
2017-10-11T03:56:17.954Z,69.47
2017-10-11T03:58:44.243Z,69.50
2017-10-11T04:01:10.523Z,69.36
2017-10-11T04:03:36.977Z,69.32
2017-10-11T04:06:03.989Z,69.20
2017-10-11T04:08:31.167Z,69.46
2017-10-11T04:10:58.229Z,69.36
2017-10-11T04:13:24.520Z,69.26
2017-10-11T04:15:50.849Z,69.24
2017-10-11T04:18:17.173Z,69.42
2017-10-11T04:20:43.497Z,69.29
2017-10-11T04:23:09.842Z,68.90
2017-10-11T04:25:36.160Z,69.03
2017-10-11T04:28:02.477Z,69.04
2017-10-11T04:30:28.750Z,68.84
2017-10-11T04:32:55.061Z,68.82
2017-10-11T04:35:21.372Z,68.92
2017-10-11T04:37:47.720Z,69.06
2017-10-11T04:40:14.060Z,69.05
2017-10-11T04:42:40.402Z,69.15
2017-10-11T04:45:06.706Z,69.27
2017-10-11T04:47:33.080Z,69.44
2017-10-11T04:49:59.433Z,69.46
2017-10-11T04:52:25.766Z,69.37
2017-10-11T04:54:52.084Z,69.26
2017-10-11T04:57:19.164Z,69.58
2017-10-11T04:59:45.494Z,69.34
2017-10-11T05:02:11.889Z,69.48
2017-10-11T05:04:38.913Z,69.53
2017-10-11T05:07:05.197Z,69.77
2017-10-11T05:09:31.540Z,69.85
2017-10-11T05:12:04.942Z,69.88
2017-10-11T05:14:31.300Z,70.10
2017-10-11T05:16:57.620Z,70.15
2017-10-11T05:19:24.008Z,70.10
2017-10-11T05:21:50.340Z,70.05
2017-10-11T05:24:16.648Z,69.91
2017-10-11T05:26:43.010Z,70.09
2017-10-11T05:29:09.342Z,70.08
2017-10-11T05:31:35.809Z,69.93
2017-10-11T05:34:02.124Z,69.55
2017-10-11T05:36:28.371Z,69.56
2017-10-11T05:38:54.757Z,69.64
2017-10-11T05:41:21.039Z,70.05
2017-10-11T05:43:47.347Z,70.35
2017-10-11T05:46:13.691Z,70.24
2017-10-11T05:48:40.011Z,69.89
2017-10-11T05:51:06.302Z,70.36
2017-10-11T05:53:32.615Z,70.15
2017-10-11T05:55:58.954Z,70.38
2017-10-11T05:58:25.215Z,70.18
2017-10-11T06:00:51.545Z,70.36
2017-10-11T06:03:17.851Z,70.53
2017-10-11T06:05:44.169Z,70.08
2017-10-11T06:08:10.505Z,70.48
2017-10-11T06:10:37.609Z,70.42
2017-10-11T06:13:03.958Z,70.29
2017-10-11T06:15:30.284Z,70.32
2017-10-11T06:17:56.623Z,69.71
2017-10-11T06:20:22.973Z,69.65
2017-10-11T06:22:49.306Z,69.40
2017-10-11T06:25:15.633Z,69.18
2017-10-11T06:27:41.876Z,68.54
2017-10-11T06:30:08.214Z,69.08
2017-10-11T06:32:34.524Z,69.19
2017-10-11T06:35:00.923Z,68.53
2017-10-11T06:37:27.291Z,68.36
2017-10-11T06:39:53.680Z,68.21
2017-10-11T06:42:19.987Z,67.72
2017-10-11T06:44:46.241Z,67.84
2017-10-11T06:47:12.527Z,67.59
2017-10-11T06:49:39.658Z,67.37
2017-10-11T06:52:05.986Z,67.29
2017-10-11T06:54:32.340Z,67.46
2017-10-11T06:56:59.396Z,67.28
2017-10-11T06:59:26.543Z,66.69
2017-10-11T07:01:53.659Z,66.28
2017-10-11T07:04:19.997Z,66.15
2017-10-11T07:06:46.318Z,65.78
2017-10-11T07:09:12.623Z,65.86
2017-10-11T07:11:38.975Z,65.41
2017-10-11T07:14:05.345Z,64.35
2017-10-11T07:16:31.689Z,64.38
2017-10-11T07:18:58.123Z,64.56
2017-10-11T07:21:24.511Z,64.23
2017-10-11T07:23:50.849Z,63.56
2017-10-11T07:26:17.177Z,63.06
2017-10-11T07:28:50.475Z,63.41
2017-10-11T07:31:16.907Z,63.04
2017-10-11T07:33:43.253Z,63.59
2017-10-11T07:36:09.670Z,62.89
2017-10-11T07:38:36.039Z,62.21
2017-10-11T07:41:03.097Z,61.86
2017-10-11T07:43:29.475Z,61.51
2017-10-11T07:45:55.885Z,62.65
2017-10-11T07:48:22.168Z,62.35
2017-10-11T07:50:48.569Z,62.30
2017-10-11T07:53:15.525Z,62.26
2017-10-11T07:55:41.863Z,61.35
2017-10-11T07:58:08.203Z,61.50
2017-10-11T08:00:34.566Z,61.58
2017-10-11T08:03:00.967Z,60.82
2017-10-11T08:05:27.277Z,60.13
2017-10-11T08:07:53.669Z,60.69
2017-10-11T08:10:19.978Z,60.04
2017-10-11T08:12:47.102Z,60.29
2017-10-11T08:15:13.506Z,60.86
2017-10-11T08:17:40.001Z,60.46
2017-10-11T08:20:06.408Z,60.65
2017-10-11T08:22:32.744Z,60.13
2017-10-11T08:24:59.153Z,59.60
2017-10-11T08:27:25.526Z,59.37
2017-10-11T08:29:52.617Z,59.36
2017-10-11T08:32:19.076Z,58.78
2017-10-11T08:34:45.382Z,58.21
2017-10-11T08:37:11.752Z,58.19
2017-10-11T08:39:38.190Z,57.84
2017-10-11T08:42:04.532Z,58.69
2017-10-11T08:44:31.582Z,58.66
2017-10-11T08:46:58.696Z,58.29
2017-10-11T08:49:25.166Z,57.82
2017-10-11T08:51:52.299Z,57.12
2017-10-11T08:54:18.689Z,56.12
2017-10-11T08:56:44.997Z,55.89
2017-10-11T08:59:11.421Z,56.24
2017-10-11T09:01:38.581Z,54.92
2017-10-11T09:04:05.759Z,53.96
2017-10-11T09:06:32.118Z,56.17
2017-10-11T09:08:58.580Z,55.73
2017-10-11T09:11:25.674Z,55.35
2017-10-11T09:13:52.139Z,56.65
2017-10-11T09:16:18.578Z,56.97
2017-10-11T09:18:44.921Z,57.05
2017-10-11T09:21:12.064Z,55.69
2017-10-11T09:23:39.281Z,55.94
2017-10-11T09:26:05.690Z,56.64
2017-10-11T09:28:32.159Z,58.19
2017-10-11T09:30:59.213Z,58.21
2017-10-11T09:33:25.544Z,58.80
2017-10-11T09:35:51.986Z,58.22
2017-10-11T09:38:18.357Z,57.64
2017-10-11T09:40:45.400Z,57.20
2017-10-11T09:43:11.667Z,56.83
2017-10-11T09:45:37.995Z,56.82
2017-10-11T09:48:04.359Z,56.58
2017-10-11T09:50:30.660Z,56.79
2017-10-11T09:52:57.195Z,54.54
2017-10-11T09:55:23.568Z,54.56
2017-10-11T09:57:49.868Z,54.33
2017-10-11T10:00:16.233Z,54.50
2017-10-11T10:02:42.548Z,53.77
2017-10-11T10:05:09.024Z,53.88
2017-10-11T10:07:35.409Z,54.79
2017-10-11T10:10:01.811Z,54.57
2017-10-11T10:12:28.203Z,54.33
2017-10-11T10:14:55.278Z,53.94
2017-10-11T10:17:21.619Z,53.80
2017-10-11T10:19:47.975Z,53.61
2017-10-11T10:22:14.336Z,51.84
2017-10-11T10:24:40.710Z,50.94
2017-10-11T10:27:06.994Z,50.88
2017-10-11T10:29:33.334Z,51.09
2017-10-11T10:31:59.754Z,49.83
2017-10-11T10:34:26.127Z,49.30
2017-10-11T10:36:52.461Z,49.37
2017-10-11T10:39:18.862Z,48.55
2017-10-11T10:41:45.228Z,48.83
2017-10-11T10:44:11.552Z,47.25
2017-10-11T10:46:37.856Z,47.93
2017-10-11T10:49:04.181Z,47.18
2017-10-11T10:51:30.582Z,48.09
2017-10-11T10:53:56.991Z,47.55
2017-10-11T10:56:23.323Z,46.52
2017-10-11T10:58:49.597Z,47.58
2017-10-11T11:01:15.938Z,48.52
2017-10-11T11:03:42.273Z,48.67
2017-10-11T11:06:08.593Z,47.46
2017-10-11T11:08:35.079Z,47.96
2017-10-11T11:11:01.470Z,48.51
2017-10-11T11:13:27.801Z,48.05
2017-10-11T11:15:54.201Z,49.03
2017-10-11T11:18:20.565Z,48.86
2017-10-11T11:20:46.866Z,47.40
2017-10-11T11:23:13.201Z,48.01
2017-10-11T11:25:40.373Z,48.48
2017-10-11T11:28:06.780Z,49.97
2017-10-11T11:30:33.110Z,50.22
2017-10-11T11:32:59.449Z,51.12
2017-10-11T11:35:25.832Z,50.52
2017-10-11T11:37:53.024Z,49.22
2017-10-11T11:40:19.484Z,48.45
2017-10-11T11:42:45.823Z,47.73
2017-10-11T11:45:12.270Z,45.94
2017-10-11T11:47:39.305Z,45.82
2017-10-11T11:50:05.635Z,45.07
2017-10-11T11:52:31.960Z,45.30
2017-10-11T11:54:58.296Z,42.62
2017-10-11T11:57:24.702Z,43.55
2017-10-11T11:59:51.177Z,42.95
2017-10-11T12:02:18.315Z,43.83
2017-10-11T12:04:44.705Z,40.59
2017-10-11T12:07:11.045Z,34.72
2017-10-11T12:09:37.381Z,33.99
2017-10-11T12:12:03.631Z,35.53
2017-10-11T12:14:29.939Z,35.72
2017-10-11T12:16:56.281Z,36.83
2017-10-11T12:19:22.639Z,37.01
2017-10-11T12:21:48.988Z,36.42
2017-10-11T12:24:16.149Z,36.57
2017-10-11T12:26:42.564Z,34.05
2017-10-11T12:29:09.602Z,31.36
2017-10-11T12:31:35.946Z,30.71
2017-10-11T12:34:03.044Z,33.01
2017-10-11T12:36:29.401Z,34.66
2017-10-11T12:38:55.768Z,34.33
2017-10-11T12:41:22.981Z,33.49
2017-10-11T12:43:49.279Z,30.92
2017-10-11T12:46:16.537Z,31.42
2017-10-11T12:48:42.870Z,37.34
2017-10-11T12:51:09.416Z,39.84
2017-10-11T12:53:35.844Z,41.05
2017-10-11T12:56:02.197Z,38.32
2017-10-11T12:58:28.543Z,35.13
2017-10-11T13:00:54.907Z,32.25
2017-10-11T13:03:21.293Z,30.76
2017-10-11T13:05:47.725Z,33.15
2017-10-11T13:08:14.017Z,36.95
2017-10-11T13:10:40.367Z,37.40
2017-10-11T13:13:06.676Z,39.59
2017-10-11T13:15:32.989Z,35.77
2017-10-11T13:17:59.303Z,31.65
2017-10-11T13:20:25.633Z,27.06
2017-10-11T13:22:51.942Z,24.65
2017-10-11T13:25:18.367Z,23.73
2017-10-11T13:27:44.618Z,21.15
2017-10-11T13:30:11.047Z,23.05
2017-10-11T13:32:37.379Z,27.36
2017-10-11T13:35:03.754Z,30.79
2017-10-11T13:37:30.141Z,33.08
2017-10-11T13:39:56.544Z,33.26
2017-10-11T13:42:22.869Z,31.37
2017-10-11T13:44:49.278Z,30.59
2017-10-11T13:47:16.369Z,31.61
2017-10-11T13:49:42.734Z,33.65
2017-10-11T13:52:09.564Z,37.71
2017-10-11T13:54:36.900Z,34.18
2017-10-11T13:57:03.226Z,31.91
2017-10-11T13:59:29.633Z,32.53
2017-10-11T14:01:56.534Z,32.36
2017-10-11T14:04:22.858Z,30.46
2017-10-11T14:06:49.270Z,30.95
2017-10-11T14:09:15.581Z,33.16
2017-10-11T14:11:41.887Z,33.56
2017-10-11T14:14:08.236Z,28.70
2017-10-11T14:16:34.660Z,29.04
2017-10-11T14:19:01.073Z,32.95
2017-10-11T14:21:28.233Z,35.42
2017-10-11T14:23:54.653Z,35.83
2017-10-11T14:26:21.009Z,33.50
2017-10-11T14:28:47.343Z,35.96
2017-10-11T14:31:13.671Z,37.34
2017-10-11T14:33:40.061Z,37.25
2017-10-11T14:38:32.827Z,43.01
2017-10-11T14:40:59.126Z,42.74
2017-10-11T14:43:26.108Z,45.25
2017-10-11T14:45:52.494Z,45.81
2017-10-11T14:48:18.898Z,47.16
2017-10-11T14:50:45.958Z,48.97
2017-10-11T14:53:13.062Z,49.41
2017-10-11T14:55:40.260Z,50.01
2017-10-11T14:58:06.628Z,51.08
2017-10-11T15:00:33.058Z,50.73
2017-10-11T15:02:59.395Z,51.03
2017-10-11T15:05:25.701Z,51.21
2017-10-11T15:07:52.069Z,51.69
2017-10-11T15:10:18.463Z,52.21
2017-10-11T15:12:44.761Z,52.49
2017-10-11T15:15:11.833Z,52.93
2017-10-11T15:17:38.171Z,51.98
2017-10-11T15:20:04.581Z,51.36
2017-10-11T15:22:31.778Z,51.46
2017-10-11T15:24:58.141Z,51.54
2017-10-11T15:27:24.452Z,51.37
2017-10-11T15:29:50.873Z,51.72
2017-10-11T15:32:17.222Z,52.67
2017-10-11T15:34:43.909Z,53.38
2017-10-11T15:37:11.117Z,53.16
2017-10-11T15:39:37.506Z,53.11
2017-10-11T15:42:03.889Z,53.13
2017-10-11T15:44:30.330Z,53.53
2017-10-11T15:46:56.740Z,53.69
2017-10-11T15:49:23.076Z,54.58
2017-10-11T15:51:49.408Z,54.78
2017-10-11T15:54:15.868Z,55.67
2017-10-11T15:56:42.271Z,56.40
2017-10-11T15:59:09.538Z,56.49
2017-10-11T16:01:35.809Z,57.22
2017-10-11T16:04:02.867Z,57.29
2017-10-11T16:06:29.231Z,57.24
2017-10-11T16:08:56.305Z,57.40
2017-10-11T16:11:22.679Z,57.11
2017-10-11T16:13:49.060Z,57.66
2017-10-11T16:16:15.367Z,57.42
2017-10-11T16:18:41.674Z,57.19
2017-10-11T16:21:07.989Z,57.04
2017-10-11T16:23:34.391Z,57.02
2017-10-11T16:26:00.970Z,56.76
2017-10-11T16:28:27.314Z,56.84
2017-10-11T16:30:53.710Z,56.97
2017-10-11T16:33:20.024Z,57.10
2017-10-11T16:35:46.326Z,57.58
2017-10-11T16:38:12.660Z,57.75
2017-10-11T16:40:38.999Z,58.04
2017-10-11T16:43:05.432Z,57.68
2017-10-11T16:45:31.765Z,58.05
2017-10-11T16:47:58.049Z,58.09
2017-10-11T16:50:24.348Z,58.33
2017-10-11T16:52:51.430Z,58.12
2017-10-11T16:55:17.826Z,58.79
2017-10-11T16:57:44.143Z,58.93
2017-10-11T17:00:10.487Z,58.80
2017-10-11T17:02:36.814Z,58.51
2017-10-11T17:05:03.149Z,59.29
2017-10-11T17:07:29.506Z,59.47
2017-10-11T17:09:55.923Z,59.60
2017-10-11T17:12:22.281Z,60.44
2017-10-11T17:14:48.612Z,59.36
2017-10-11T17:17:14.934Z,60.05
2017-10-11T17:19:41.340Z,59.93
2017-10-11T17:22:07.666Z,60.05
2017-10-11T17:24:34.231Z,60.02
2017-10-11T17:27:01.293Z,60.18
2017-10-11T17:29:27.711Z,60.60
2017-10-11T17:31:54.101Z,60.48
2017-10-11T17:34:20.462Z,60.86
2017-10-11T17:36:46.800Z,60.74
2017-10-11T17:39:13.869Z,61.06
2017-10-11T17:41:40.173Z,61.00
2017-10-11T17:44:06.505Z,61.69
2017-10-11T17:46:32.851Z,61.39
2017-10-11T17:48:59.963Z,61.38
2017-10-11T17:51:41.237Z,62.56
2017-10-11T17:54:07.568Z,62.54
2017-10-11T17:56:33.954Z,62.85
2017-10-11T17:59:00.282Z,62.50
2017-10-11T18:01:27.534Z,62.98
2017-10-11T18:03:53.877Z,63.51
2017-10-11T18:06:20.286Z,63.22
2017-10-11T18:08:46.664Z,62.71
2017-10-11T18:11:13.055Z,63.07
2017-10-11T18:13:40.383Z,63.34
2017-10-11T18:16:06.827Z,63.20
2017-10-11T18:18:33.229Z,63.94
2017-10-11T18:21:00.414Z,63.63
2017-10-11T18:23:26.843Z,63.07
2017-10-11T18:25:53.356Z,63.83
2017-10-11T18:28:19.795Z,63.18
2017-10-11T18:30:46.126Z,62.48
2017-10-11T18:35:45.532Z,63.77
2017-10-11T18:38:12.103Z,63.47
2017-10-11T18:40:39.169Z,63.85
2017-10-11T18:43:06.199Z,62.92
2017-10-11T18:45:32.535Z,61.92
2017-10-11T18:47:58.876Z,61.63
2017-10-11T18:50:25.228Z,60.62
2017-10-11T18:52:51.601Z,60.18
2017-10-11T18:55:18.011Z,60.37
2017-10-11T18:57:44.309Z,60.49
2017-10-11T19:00:10.655Z,59.37
2017-10-11T19:02:37.095Z,60.26
2017-10-11T19:05:03.459Z,59.85
2017-10-11T19:07:29.839Z,59.59
2017-10-11T19:09:56.359Z,59.64
2017-10-11T19:12:22.685Z,59.48
2017-10-11T19:14:49.080Z,59.03
2017-10-11T19:17:16.227Z,59.23
2017-10-11T19:19:42.700Z,59.55
2017-10-11T19:22:09.191Z,59.57
2017-10-11T19:24:35.516Z,59.63
2017-10-11T19:27:01.883Z,59.51
2017-10-11T19:29:28.306Z,59.64
2017-10-11T19:31:54.702Z,59.70
2017-10-11T19:34:21.073Z,59.67
2017-10-11T19:36:47.423Z,59.25
2017-10-11T19:39:13.742Z,58.94
2017-10-11T19:41:40.098Z,59.44
2017-10-11T19:44:06.563Z,59.59
2017-10-11T19:46:32.948Z,60.01
2017-10-11T19:48:59.499Z,59.94
2017-10-11T19:51:26.023Z,59.60
2017-10-11T19:53:52.351Z,59.31
2017-10-11T19:56:18.675Z,59.98
2017-10-11T19:58:45.023Z,59.70
2017-10-11T20:01:11.415Z,59.43
2017-10-11T20:03:37.757Z,59.19
2017-10-11T20:06:04.094Z,59.23
2017-10-11T20:08:30.435Z,59.43
2017-10-11T20:10:56.704Z,59.84
2017-10-11T20:13:23.046Z,59.69
2017-10-11T20:15:49.362Z,59.71
2017-10-11T20:18:16.579Z,60.10
2017-10-11T20:20:42.911Z,60.18
2017-10-11T20:23:09.267Z,59.97
2017-10-11T20:25:35.641Z,59.26
2017-10-11T20:28:01.915Z,59.17
2017-10-11T20:30:28.263Z,59.09
2017-10-11T20:32:54.667Z,59.74
2017-10-11T20:35:21.065Z,59.83
2017-10-11T20:37:47.433Z,59.67
2017-10-11T20:40:13.759Z,59.06
2017-10-11T20:42:40.061Z,59.35
2017-10-11T20:45:06.385Z,59.66
2017-10-11T20:47:32.748Z,59.47
2017-10-11T20:49:59.100Z,59.18
2017-10-11T20:52:25.410Z,59.41
2017-10-11T20:54:52.510Z,59.17
2017-10-11T20:57:19.608Z,59.28
2017-10-11T20:59:53.101Z,58.91
2017-10-11T21:02:19.681Z,58.99
2017-10-11T21:04:45.989Z,58.60
2017-10-11T21:07:12.298Z,58.78
2017-10-11T21:09:38.637Z,58.37
2017-10-11T21:12:05.765Z,58.35
2017-10-11T21:14:32.121Z,58.24
2017-10-11T21:16:58.429Z,58.24
2017-10-11T21:19:24.721Z,58.00
2017-10-11T21:21:51.745Z,58.33
2017-10-11T21:24:18.056Z,58.34
2017-10-11T21:26:44.354Z,58.61
2017-10-11T21:29:10.726Z,58.29
2017-10-11T21:31:37.053Z,58.34
2017-10-11T21:34:03.364Z,58.00
2017-10-11T21:36:29.692Z,58.43
2017-10-11T21:38:55.984Z,58.33
2017-10-11T21:41:22.476Z,58.09
2017-10-11T21:43:48.768Z,57.97
2017-10-11T21:46:15.848Z,57.56
2017-10-11T21:48:42.168Z,57.42
2017-10-11T21:51:08.556Z,57.36
2017-10-11T21:53:34.854Z,57.57
2017-10-11T21:56:01.124Z,57.47
2017-10-11T21:58:28.132Z,57.50
2017-10-11T22:00:54.474Z,57.98
2017-10-11T22:03:20.785Z,58.01
2017-10-11T22:05:47.090Z,57.95
2017-10-11T22:08:13.559Z,58.02
2017-10-11T22:10:40.583Z,58.61
2017-10-11T22:13:07.227Z,58.63
2017-10-11T22:15:33.547Z,58.11
2017-10-11T22:17:59.839Z,57.77
2017-10-11T22:20:26.169Z,58.32
2017-10-11T22:22:52.549Z,58.00
2017-10-11T22:25:18.869Z,57.96
2017-10-11T22:27:45.233Z,57.75
2017-10-11T22:30:11.573Z,57.86
2017-10-11T22:32:37.917Z,57.63
2017-10-11T22:35:04.241Z,57.78
2017-10-11T22:37:30.577Z,57.40
2017-10-11T22:39:56.855Z,57.24
2017-10-11T22:42:23.172Z,57.10
2017-10-11T22:44:50.216Z,57.39
2017-10-11T22:47:16.516Z,57.08
2017-10-11T22:49:42.808Z,57.03
2017-10-11T22:52:09.076Z,57.33
2017-10-11T22:54:35.337Z,57.67
2017-10-11T22:57:02.397Z,57.99
2017-10-11T22:59:28.684Z,58.00
2017-10-11T23:01:55.014Z,57.83
2017-10-11T23:04:21.265Z,57.85
2017-10-11T23:06:48.289Z,57.72
2017-10-11T23:09:14.537Z,57.92
2017-10-11T23:11:40.806Z,58.03
2017-10-11T23:14:07.063Z,57.57
2017-10-11T23:16:33.347Z,57.66
2017-10-11T23:18:59.605Z,58.27
2017-10-11T23:21:25.913Z,58.89
2017-10-11T23:23:52.347Z,58.93
2017-10-11T23:26:18.665Z,59.05
2017-10-11T23:28:45.704Z,59.44
2017-10-11T23:31:12.781Z,59.52
2017-10-11T23:33:39.111Z,58.50
2017-10-11T23:36:05.414Z,57.97
2017-10-11T23:38:32.550Z,58.15
2017-10-11T23:40:58.848Z,58.03
2017-10-11T23:43:25.188Z,57.91
2017-10-11T23:45:51.462Z,57.33
2017-10-11T23:48:17.784Z,57.70
2017-10-11T23:50:44.814Z,57.93
2017-10-11T23:53:11.152Z,57.79
2017-10-11T23:55:37.426Z,57.85
2017-10-11T23:58:03.744Z,57.87
